Time;durP1;ratioP1;P1;durP2;ratioP2;P2;SDS_P1;SDS_P2;PMS_P1;PMS_P2;Temp;Humidity;BMP_temperature;BMP_pressure;BME280_temperature;BME280_humidity;BME280_pressure;Samples;Min_cycle;Max_cycle;Signal;HPM_P1;HPM_P2
2022/01/21 00:00:01;;;;;;;0.00;0.00;;;;;;;;;;5073523;28;20205;-73
2022/01/21 00:02:29;;;;;;;0.00;0.00;;;;;;;;;;5073375;28;20232;-71
2022/01/21 00:04:58;;;;;;;0.00;0.00;;;;;;;;;;5073803;28;20319;-73
2022/01/21 00:07:26;;;;;;;0.00;0.00;;;;;;;;;;5074046;28;20233;-72
2022/01/21 00:09:55;;;;;;;0.00;0.00;;;;;;;;;;5067136;28;20272;-72
2022/01/21 00:12:24;;;;;;;0.00;0.00;;;;;;;;;;5073717;28;20622;-74
2022/01/21 00:14:54;;;;;;;0.00;0.00;;;;;;;;;;5073869;28;20251;-72
2022/01/21 00:17:23;;;;;;;0.00;0.00;;;;;;;;;;5073777;28;20714;-71
2022/01/21 00:30:03;;;;;;;0.00;0.00;;;;;;;;;;5073723;28;20215;-74
2022/01/21 00:30:59;;;;;;;0.03;0.03;;;;;;;;;;5073376;28;20201;-73
2022/01/21 00:33:28;;;;;;;0.00;0.00;;;;;;;;;;5073508;28;20204;-73
2022/01/21 00:35:58;;;;;;;0.00;0.00;;;;;;;;;;5073348;28;20730;-72
2022/01/21 00:38:29;;;;;;;0.00;0.00;;;;;;;;;;5068130;28;20217;-73
2022/01/21 00:41:00;;;;;;;0.00;0.00;;;;;;;;;;5060607;28;20251;-70
2022/01/21 00:43:31;;;;;;;0.00;0.00;;;;;;;;;;5072924;28;20262;-73
2022/01/21 00:46:02;;;;;;;0.00;0.00;;;;;;;;;;5073338;28;20230;-70
2022/01/21 00:48:30;;;;;;;0.00;0.00;;;;;;;;;;5073066;28;20250;-71
2022/01/21 00:50:59;;;;;;;0.00;0.00;;;;;;;;;;5060732;28;20260;-73
2022/01/21 00:53:27;;;;;;;0.00;0.00;;;;;;;;;;5059234;28;20250;-71
2022/01/21 00:55:55;;;;;;;0.00;0.00;;;;;;;;;;5053618;28;20563;-72
2022/01/21 00:58:24;;;;;;;0.00;0.00;;;;;;;;;;5053014;28;20282;-71
2022/01/21 01:00:52;;;;;;;0.00;0.00;;;;;;;;;;5059431;28;20572;-71
2022/01/21 01:03:22;;;;;;;0.00;0.00;;;;;;;;;;5053094;28;20245;-72
2022/01/21 01:05:51;;;;;;;0.00;0.00;;;;;;;;;;5053447;28;20252;-73
2022/01/21 01:08:20;;;;;;;0.00;0.00;;;;;;;;;;5054629;28;20221;-72
2022/01/21 01:11:12;;;;;;;0.00;0.00;;;;;;;;;;5073049;28;20205;-74
2022/01/21 01:21:59;;;;;;;0.00;0.00;;;;;;;;;;5072790;28;20221;-71
2022/01/21 01:30:00;;;;;;;0.00;0.00;;;;;;;;;;5053177;28;20561;-73
2022/01/21 01:32:30;;;;;;;0.00;0.00;;;;;;;;;;5073195;28;20204;-73
2022/01/21 01:34:59;;;;;;;0.00;0.00;;;;;;;;;;5073243;28;20213;-73
2022/01/21 01:37:40;;;;;;;0.00;0.00;;;;;;;;;;5072975;28;20225;-74
2022/01/21 01:51:02;;;;;;;0.00;0.00;;;;;;;;;;5063192;28;20549;-72
2022/01/21 01:53:32;;;;;;;0.00;0.00;;;;;;;;;;5073389;28;20662;-72
2022/01/21 01:56:00;;;;;;;0.00;0.00;;;;;;;;;;5076389;28;20197;-71
2022/01/21 01:58:29;;;;;;;0.00;0.00;;;;;;;;;;5075997;28;20274;-72
2022/01/21 02:00:57;;;;;;;0.00;0.00;;;;;;;;;;5076288;28;20201;-74
2022/01/21 02:03:26;;;;;;;0.00;0.00;;;;;;;;;;5075496;28;20274;-71
2022/01/21 02:05:54;;;;;;;0.00;0.00;;;;;;;;;;5075670;28;20202;-72
2022/01/21 02:08:24;;;;;;;0.00;0.00;;;;;;;;;;5076007;28;20696;-72
2022/01/21 02:10:52;;;;;;;0.00;0.00;;;;;;;;;;5075997;28;20205;-73
2022/01/21 02:13:24;;;;;;;0.00;0.00;;;;;;;;;;5075740;28;20254;-74
2022/01/21 02:16:05;;;;;;;0.00;0.00;;;;;;;;;;5075113;28;20197;-74
2022/01/21 02:21:36;;;;;;;0.00;0.00;;;;;;;;;;5074001;28;20209;-72
2022/01/21 02:24:06;;;;;;;0.00;0.00;;;;;;;;;;5066478;28;20235;-71
2022/01/21 02:26:35;;;;;;;0.00;0.00;;;;;;;;;;5075875;28;20222;-72
2022/01/21 02:29:05;;;;;;;0.00;0.00;;;;;;;;;;5075602;28;20205;-74
2022/01/21 02:31:34;;;;;;;0.00;0.00;;;;;;;;;;5076059;28;20266;-72
2022/01/21 02:34:03;;;;;;;0.00;0.00;;;;;;;;;;5075553;28;20255;-70
2022/01/21 02:36:33;;;;;;;0.00;0.00;;;;;;;;;;5075677;28;20748;-71
2022/01/21 02:39:02;;;;;;;0.00;0.00;;;;;;;;;;5075740;28;20228;-72
2022/01/21 02:41:30;;;;;;;0.00;0.00;;;;;;;;;;5065790;28;20343;-73
2022/01/21 02:43:59;;;;;;;0.00;0.00;;;;;;;;;;5074824;28;20274;-72
2022/01/21 02:46:28;;;;;;;0.00;0.00;;;;;;;;;;5075130;28;20224;-73
2022/01/21 02:48:56;;;;;;;0.00;0.00;;;;;;;;;;5075256;28;20221;-71
2022/01/21 02:51:25;;;;;;;0.00;0.00;;;;;;;;;;5075311;28;20210;-71
2022/01/21 02:54:06;;;;;;;0.00;0.00;;;;;;;;;;5075210;28;20240;-73
2022/01/21 02:56:35;;;;;;;0.00;0.00;;;;;;;;;;5075304;28;20197;-75
2022/01/21 02:59:04;;;;;;;0.00;0.00;;;;;;;;;;5075320;28;20200;-72
2022/01/21 03:01:34;;;;;;;0.00;0.00;;;;;;;;;;5073137;28;20635;-70
2022/01/21 03:04:04;;;;;;;0.00;0.00;;;;;;;;;;5074508;28;20203;-70
2022/01/21 03:06:33;;;;;;;0.00;0.00;;;;;;;;;;5070356;28;20319;-71
2022/01/21 03:09:03;;;;;;;0.00;0.00;;;;;;;;;;5061574;28;20283;-72
2022/01/21 03:11:31;;;;;;;0.00;0.00;;;;;;;;;;5074895;28;20596;-71
2022/01/21 03:14:00;;;;;;;0.00;0.00;;;;;;;;;;5074780;28;20205;-73
2022/01/21 03:16:28;;;;;;;0.00;0.00;;;;;;;;;;5074839;28;20201;-74
2022/01/21 03:18:57;;;;;;;0.00;0.00;;;;;;;;;;5070313;28;20230;-73
2022/01/21 03:21:25;;;;;;;0.00;0.00;;;;;;;;;;5071115;28;20810;-72
2022/01/21 03:23:55;;;;;;;0.00;0.00;;;;;;;;;;5074964;28;20246;-74
2022/01/21 03:26:25;;;;;;;0.00;0.00;;;;;;;;;;5074448;28;20653;-73
2022/01/21 03:28:55;;;;;;;0.00;0.00;;;;;;;;;;5074281;28;20222;-70
2022/01/21 03:31:24;;;;;;;0.00;0.00;;;;;;;;;;5074454;28;20204;-71
2022/01/21 03:33:52;;;;;;;0.00;0.00;;;;;;;;;;5074308;28;20226;-71
2022/01/21 03:36:21;;;;;;;0.00;0.00;;;;;;;;;;5073986;28;20213;-71
2022/01/21 03:38:49;;;;;;;0.00;0.00;;;;;;;;;;5074308;28;20223;-72
2022/01/21 03:41:18;;;;;;;0.00;0.00;;;;;;;;;;5074343;28;20220;-73
2022/01/21 03:43:49;;;;;;;0.00;0.00;;;;;;;;;;5073964;28;20201;-71
2022/01/21 03:46:18;;;;;;;0.00;0.00;;;;;;;;;;5074078;28;20206;-73
2022/01/21 03:48:49;;;;;;;0.00;0.00;;;;;;;;;;5074099;28;20226;-73
2022/01/21 03:51:18;;;;;;;0.00;0.00;;;;;;;;;;5073810;28;20205;-70
2022/01/21 03:53:47;;;;;;;0.00;0.00;;;;;;;;;;5069975;28;20208;-71
2022/01/21 03:56:15;;;;;;;0.00;0.00;;;;;;;;;;5074002;28;20208;-71
2022/01/21 03:58:44;;;;;;;0.00;0.00;;;;;;;;;;5073814;28;20230;-71
2022/01/21 04:01:14;;;;;;;0.00;0.00;;;;;;;;;;5065691;28;20743;-73
2022/01/21 04:03:42;;;;;;;0.00;0.00;;;;;;;;;;5070757;28;20226;-72
2022/01/21 04:06:11;;;;;;;0.00;0.00;;;;;;;;;;5073884;28;20259;-72
2022/01/21 04:08:39;;;;;;;0.00;0.00;;;;;;;;;;5073419;28;20222;-70
2022/01/21 04:11:08;;;;;;;0.00;0.00;;;;;;;;;;5074136;28;20263;-71
2022/01/21 04:13:36;;;;;;;0.00;0.00;;;;;;;;;;5073458;28;20259;-71
2022/01/21 04:16:05;;;;;;;0.00;0.00;;;;;;;;;;5073448;28;20263;-71
2022/01/21 04:18:35;;;;;;;0.00;0.00;;;;;;;;;;5072954;28;20271;-72
2022/01/21 04:21:03;;;;;;;0.00;0.00;;;;;;;;;;5073673;28;20202;-73
2022/01/21 04:23:32;;;;;;;0.00;0.00;;;;;;;;;;5073353;28;20206;-71
2022/01/21 04:26:00;;;;;;;0.00;0.00;;;;;;;;;;5073720;28;20604;-71
2022/01/21 04:28:29;;;;;;;0.00;0.00;;;;;;;;;;5072984;28;20250;-70
2022/01/21 04:30:58;;;;;;;0.00;0.00;;;;;;;;;;5073589;28;20614;-74
2022/01/21 04:33:26;;;;;;;0.00;0.00;;;;;;;;;;5073082;28;20209;-73
2022/01/21 04:35:56;;;;;;;0.00;0.00;;;;;;;;;;5071832;28;20258;-71
2022/01/21 04:38:26;;;;;;;0.00;0.00;;;;;;;;;;5060220;28;20249;-71
2022/01/21 04:41:00;;;;;;;0.00;0.00;;;;;;;;;;5073244;28;20198;-72
2022/01/21 04:49:01;;;;;;;0.00;0.00;;;;;;;;;;5073323;28;20253;-73
2022/01/21 04:51:38;;;;;;;0.00;0.00;;;;;;;;;;5073386;28;20210;-72
2022/01/21 04:54:06;;;;;;;0.00;0.00;;;;;;;;;;5073097;28;20251;-70
2022/01/21 04:56:34;;;;;;;0.00;0.00;;;;;;;;;;5063388;28;20205;-72
2022/01/21 04:59:04;;;;;;;0.00;0.00;;;;;;;;;;5073260;28;20270;-72
2022/01/21 05:01:33;;;;;;;0.00;0.00;;;;;;;;;;5073252;28;20254;-71
2022/01/21 05:04:01;;;;;;;0.00;0.00;;;;;;;;;;5073306;28;20296;-71
2022/01/21 05:06:31;;;;;;;0.00;0.00;;;;;;;;;;5072794;28;20731;-74
2022/01/21 05:09:00;;;;;;;0.00;0.00;;;;;;;;;;5072845;28;20229;-72
2022/01/21 05:11:29;;;;;;;0.00;0.00;;;;;;;;;;5073273;28;20305;-73
2022/01/21 05:14:09;;;;;;;0.00;0.00;;;;;;;;;;5058549;28;20260;-72
2022/01/21 05:16:38;;;;;;;0.00;0.00;;;;;;;;;;5059692;28;20611;-71
2022/01/21 05:19:14;;;;;;;0.00;0.00;;;;;;;;;;5067420;28;20199;-73
2022/01/21 05:21:44;;;;;;;0.00;0.00;;;;;;;;;;5072702;28;20624;-72
2022/01/21 05:24:12;;;;;;;0.00;0.00;;;;;;;;;;5073335;28;20201;-73
2022/01/21 05:26:48;;;;;;;0.00;0.00;;;;;;;;;;5072537;28;20607;-72
2022/01/21 05:29:17;;;;;;;0.00;0.00;;;;;;;;;;5075330;28;20224;-72
2022/01/21 05:31:45;;;;;;;0.00;0.00;;;;;;;;;;5075336;28;20660;-72
2022/01/21 05:34:14;;;;;;;0.00;0.00;;;;;;;;;;5076865;28;20209;-73
2022/01/21 05:36:44;;;;;;;0.00;0.00;;;;;;;;;;5077006;28;20201;-73
2022/01/21 05:39:14;;;;;;;0.00;0.00;;;;;;;;;;5076788;28;20203;-71
2022/01/21 05:41:46;;;;;;;0.00;0.00;;;;;;;;;;5070265;28;20251;-70
2022/01/21 05:46:22;;;;;;;0.00;0.00;;;;;;;;;;5071490;28;20244;-72
2022/01/21 05:47:04;;;;;;;0.00;0.00;;;;;;;;;;5068482;27;20230;-73
2022/01/21 05:49:35;;;;;;;0.00;0.00;;;;;;;;;;5063671;28;20225;-74
2022/01/21 05:52:09;;;;;;;0.00;0.00;;;;;;;;;;5083377;28;20198;-71
2022/01/21 05:54:37;;;;;;;0.00;0.00;;;;;;;;;;5077062;28;20263;-72
2022/01/21 05:57:07;;;;;;;0.00;0.00;;;;;;;;;;5076643;28;20222;-74
2022/01/21 05:59:35;;;;;;;0.00;0.00;;;;;;;;;;5074492;28;20197;-72
2022/01/21 06:02:04;;;;;;;0.00;0.00;;;;;;;;;;5064457;28;20207;-73
2022/01/21 06:04:33;;;;;;;0.00;0.00;;;;;;;;;;5073734;28;20209;-72
2022/01/21 06:07:02;;;;;;;0.00;0.00;;;;;;;;;;5073866;28;20223;-71
2022/01/21 06:09:32;;;;;;;0.00;0.00;;;;;;;;;;5075855;28;20225;-73
2022/01/21 06:12:00;;;;;;;0.00;0.00;;;;;;;;;;5059668;28;20194;-73
2022/01/21 06:14:29;;;;;;;0.00;0.00;;;;;;;;;;5074579;28;20567;-74
2022/01/21 06:16:58;;;;;;;0.00;0.00;;;;;;;;;;5076339;28;20320;-73
2022/01/21 06:19:26;;;;;;;0.00;0.00;;;;;;;;;;5075707;28;20213;-74
2022/01/21 06:21:55;;;;;;;0.00;0.00;;;;;;;;;;5076035;28;20198;-74
2022/01/21 06:24:23;;;;;;;0.00;0.00;;;;;;;;;;5087008;28;20677;-72
2022/01/21 06:26:58;;;;;;;0.00;0.00;;;;;;;;;;5091458;28;20206;-71
2022/01/21 06:29:27;;;;;;;0.00;0.00;;;;;;;;;;5094408;28;20267;-72
2022/01/21 06:31:55;;;;;;;0.00;0.00;;;;;;;;;;5079894;28;20250;-73
2022/01/21 06:34:24;;;;;;;0.00;0.00;;;;;;;;;;5075920;28;20210;-73
2022/01/21 06:36:52;;;;;;;0.00;0.00;;;;;;;;;;5077146;28;20255;-73
2022/01/21 06:39:20;;;;;;;0.00;0.00;;;;;;;;;;5089232;28;20723;-73
2022/01/21 06:41:49;;;;;;;0.00;0.00;;;;;;;;;;5083369;28;20240;-71
2022/01/21 06:44:20;;;;;;;0.00;0.00;;;;;;;;;;5074708;28;20209;-71
2022/01/21 06:46:48;;;;;;;0.00;0.00;;;;;;;;;;5078467;28;20186;-73
2022/01/21 06:49:17;;;;;;;0.00;0.00;;;;;;;;;;5079160;28;20254;-74
2022/01/21 06:51:45;;;;;;;0.00;0.00;;;;;;;;;;5095526;28;20662;-73
2022/01/21 06:54:13;;;;;;;0.00;0.00;;;;;;;;;;5078795;28;20649;-73
2022/01/21 06:56:42;;;;;;;0.00;0.00;;;;;;;;;;5095473;28;20262;-74
2022/01/21 06:59:10;;;;;;;0.00;0.00;;;;;;;;;;5093533;28;20199;-74
2022/01/21 07:01:40;;;;;;;0.00;0.00;;;;;;;;;;5076359;28;20198;-76
2022/01/21 07:04:08;;;;;;;0.00;0.00;;;;;;;;;;5055540;28;20199;-74
2022/01/21 07:06:37;;;;;;;0.00;0.00;;;;;;;;;;5062898;28;20197;-73
2022/01/21 07:09:05;;;;;;;0.00;0.00;;;;;;;;;;5075243;28;20631;-75
2022/01/21 07:11:34;;;;;;;0.00;0.00;;;;;;;;;;5074859;28;20206;-73
2022/01/21 07:14:03;;;;;;;0.00;0.00;;;;;;;;;;5074887;28;20205;-72
2022/01/21 07:16:31;;;;;;;0.00;0.00;;;;;;;;;;5075164;28;20642;-71
2022/01/21 07:19:01;;;;;;;0.00;0.00;;;;;;;;;;5075145;28;20225;-72
2022/01/21 07:21:29;;;;;;;0.00;0.00;;;;;;;;;;5075049;28;20252;-74
2022/01/21 07:23:58;;;;;;;0.00;0.00;;;;;;;;;;5074926;28;20271;-75
2022/01/21 07:26:26;;;;;;;0.00;0.00;;;;;;;;;;5087698;28;20205;-72
2022/01/21 07:28:55;;;;;;;0.00;0.00;;;;;;;;;;5094516;28;20286;-74
2022/01/21 07:31:24;;;;;;;0.00;0.00;;;;;;;;;;5083364;28;20600;-73
2022/01/21 07:33:53;;;;;;;0.00;0.00;;;;;;;;;;5074959;28;20206;-72
2022/01/21 07:36:23;;;;;;;0.00;0.00;;;;;;;;;;5075179;28;20195;-71
2022/01/21 07:38:51;;;;;;;0.00;0.00;;;;;;;;;;5074492;28;20226;-72
2022/01/21 07:41:20;;;;;;;0.00;0.00;;;;;;;;;;5074849;28;20201;-74
2022/01/21 07:43:48;;;;;;;0.00;0.00;;;;;;;;;;5074577;28;20282;-72
2022/01/21 07:46:17;;;;;;;0.00;0.00;;;;;;;;;;5082901;28;20299;-75
2022/01/21 07:48:46;;;;;;;0.00;0.00;;;;;;;;;;5091170;28;20313;-74
2022/01/21 07:51:15;;;;;;;0.00;0.00;;;;;;;;;;5074131;28;20195;-72
2022/01/21 07:53:44;;;;;;;0.00;0.00;;;;;;;;;;5074689;28;20259;-72
2022/01/21 07:56:13;;;;;;;0.00;0.00;;;;;;;;;;5074700;28;20202;-73
2022/01/21 07:58:42;;;;;;;0.00;0.00;;;;;;;;;;5074260;28;20226;-72
2022/01/21 08:01:10;;;;;;;0.00;0.00;;;;;;;;;;5074136;28;20616;-72
2022/01/21 08:03:39;;;;;;;0.00;0.00;;;;;;;;;;5089112;28;20284;-72
2022/01/21 08:06:07;;;;;;;0.00;0.00;;;;;;;;;;5087118;28;20214;-72
2022/01/21 08:08:35;;;;;;;0.00;0.00;;;;;;;;;;5074177;28;20234;-72
2022/01/21 08:11:05;;;;;;;0.00;0.00;;;;;;;;;;5073815;28;20230;-73
2022/01/21 08:13:34;;;;;;;0.00;0.00;;;;;;;;;;5073864;28;20669;-72
2022/01/21 08:16:02;;;;;;;0.00;0.00;;;;;;;;;;5073916;28;20202;-71
2022/01/21 08:18:30;;;;;;;0.00;0.00;;;;;;;;;;5073788;28;20232;-72
2022/01/21 08:20:59;;;;;;;0.00;0.00;;;;;;;;;;5073698;28;20206;-71
2022/01/21 08:23:27;;;;;;;0.00;0.00;;;;;;;;;;5086169;28;20198;-74
2022/01/21 08:25:56;;;;;;;0.00;0.00;;;;;;;;;;5093878;28;20250;-73
2022/01/21 08:28:25;;;;;;;0.00;0.00;;;;;;;;;;5093844;28;20221;-75
2022/01/21 08:30:54;;;;;;;0.00;0.00;;;;;;;;;;5075695;28;20211;-74
2022/01/21 08:33:22;;;;;;;0.00;0.00;;;;;;;;;;5073442;28;20201;-73
2022/01/21 08:35:51;;;;;;;0.00;0.00;;;;;;;;;;5089235;28;20202;-72
2022/01/21 08:38:21;;;;;;;0.00;0.00;;;;;;;;;;5092315;28;20225;-75
2022/01/21 08:40:50;;;;;;;0.00;0.00;;;;;;;;;;5089841;28;20202;-74
2022/01/21 08:43:19;;;;;;;0.00;0.00;;;;;;;;;;5093692;28;20661;-72
2022/01/21 08:45:49;;;;;;;0.00;0.00;;;;;;;;;;5084707;28;20260;-73
2022/01/21 08:48:17;;;;;;;0.00;0.00;;;;;;;;;;5073733;28;20315;-73
2022/01/21 08:50:46;;;;;;;0.00;0.00;;;;;;;;;;5073647;28;20283;-74
2022/01/21 08:55:57;;;;;;;0.00;0.00;;;;;;;;;;5071421;28;20553;-73
2022/01/21 08:58:25;;;;;;;0.00;0.00;;;;;;;;;;5073095;28;20225;-74
2022/01/21 09:00:55;;;;;;;0.00;0.00;;;;;;;;;;5072642;28;20202;-74
2022/01/21 09:03:24;;;;;;;0.00;0.00;;;;;;;;;;5072743;28;20202;-73
2022/01/21 09:05:52;;;;;;;0.00;0.00;;;;;;;;;;5073609;28;20347;-71
2022/01/21 09:08:23;;;;;;;0.00;0.00;;;;;;;;;;5073253;28;20223;-75
2022/01/21 09:10:51;;;;;;;0.00;0.00;;;;;;;;;;5073283;28;20203;-74
2022/01/21 09:13:21;;;;;;;0.00;0.00;;;;;;;;;;5073414;28;20203;-75
2022/01/21 09:15:49;;;;;;;0.00;0.00;;;;;;;;;;5073673;28;20214;-73
2022/01/21 09:18:20;;;;;;;0.00;0.00;;;;;;;;;;5072930;28;20227;-75
2022/01/21 09:20:48;;;;;;;0.00;0.00;;;;;;;;;;5055628;28;20579;-72
2022/01/21 09:23:17;;;;;;;0.00;0.00;;;;;;;;;;5073458;28;20210;-74
2022/01/21 09:25:45;;;;;;;0.00;0.00;;;;;;;;;;5073585;28;20207;-74
2022/01/21 09:28:14;;;;;;;0.00;0.00;;;;;;;;;;5072997;28;20223;-73
2022/01/21 09:30:42;;;;;;;0.00;0.00;;;;;;;;;;5072801;28;20564;-76
2022/01/21 09:33:11;;;;;;;0.00;0.00;;;;;;;;;;5052896;28;20206;-74
2022/01/21 09:35:40;;;;;;;0.00;0.00;;;;;;;;;;5052884;28;20259;-71
2022/01/21 09:38:09;;;;;;;0.00;0.00;;;;;;;;;;5073331;28;20284;-73
2022/01/21 09:40:45;;;;;;;0.00;0.00;;;;;;;;;;5058606;28;20202;-74
2022/01/21 09:43:15;;;;;;;0.00;0.00;;;;;;;;;;5072845;28;20586;-75
2022/01/21 09:45:43;;;;;;;0.00;0.00;;;;;;;;;;5072771;28;20214;-75
2022/01/21 09:48:12;;;;;;;0.00;0.00;;;;;;;;;;5074706;28;20218;-72
2022/01/21 09:50:42;;;;;;;0.00;0.00;;;;;;;;;;5074223;28;20296;-75
2022/01/21 09:53:12;;;;;;;0.00;0.00;;;;;;;;;;5092943;28;20213;-74
2022/01/21 09:55:42;;;;;;;0.00;0.00;;;;;;;;;;5093460;28;20196;-75
2022/01/21 09:58:10;;;;;;;0.00;0.00;;;;;;;;;;5092983;28;20279;-72
2022/01/21 10:00:41;;;;;;;0.00;0.00;;;;;;;;;;5072582;28;20560;-75
2022/01/21 10:03:10;;;;;;;0.00;0.00;;;;;;;;;;5072744;28;20218;-74
2022/01/21 10:05:39;;;;;;;0.00;0.00;;;;;;;;;;5072740;28;20289;-72
2022/01/21 10:08:09;;;;;;;0.00;0.00;;;;;;;;;;5072438;28;20280;-73
2022/01/21 10:10:40;;;;;;;0.00;0.00;;;;;;;;;;5070564;28;20229;-73
2022/01/21 10:13:08;;;;;;;0.00;0.00;;;;;;;;;;5072784;28;20679;-72
2022/01/21 10:15:37;;;;;;;0.00;0.00;;;;;;;;;;5075850;28;20199;-74
2022/01/21 10:18:07;;;;;;;0.00;0.00;;;;;;;;;;5076548;28;20250;-72
2022/01/21 10:20:39;;;;;;;0.00;0.00;;;;;;;;;;5075942;28;20249;-74
2022/01/21 10:23:10;;;;;;;0.00;0.00;;;;;;;;;;5076491;28;20246;-74
2022/01/21 10:25:40;;;;;;;0.00;0.00;;;;;;;;;;5076134;28;20208;-73
2022/01/21 10:28:09;;;;;;;0.00;0.00;;;;;;;;;;5076058;28;20708;-75
2022/01/21 10:30:37;;;;;;;0.00;0.00;;;;;;;;;;5075716;28;20279;-75
2022/01/21 10:33:18;;;;;;;0.00;0.00;;;;;;;;;;5076143;28;20212;-74
2022/01/21 10:35:49;;;;;;;0.00;0.00;;;;;;;;;;5087737;28;20519;-75
2022/01/21 10:38:22;;;;;;;0.00;0.00;;;;;;;;;;5089198;28;20217;-75
2022/01/21 10:40:51;;;;;;;0.00;0.00;;;;;;;;;;5075406;28;20703;-73
2022/01/21 10:43:22;;;;;;;0.00;0.00;;;;;;;;;;5075563;28;20675;-73
2022/01/21 10:45:55;;;;;;;0.00;0.00;;;;;;;;;;5084762;28;20209;-73
2022/01/21 10:48:24;;;;;;;0.00;0.00;;;;;;;;;;5095499;28;20222;-74
2022/01/21 10:51:07;;;;;;;0.00;0.00;;;;;;;;;;5074985;28;20226;-72
2022/01/21 10:53:38;;;;;;;0.00;0.00;;;;;;;;;;5075510;28;20207;-75
2022/01/21 10:56:10;;;;;;;0.00;0.00;;;;;;;;;;5075959;28;20198;-75
2022/01/21 10:58:39;;;;;;;0.00;0.00;;;;;;;;;;5075239;28;20297;-75
2022/01/21 11:01:12;;;;;;;0.00;0.00;;;;;;;;;;5074692;28;20725;-72
2022/01/21 11:03:56;;;;;;;0.00;0.00;;;;;;;;;;5075236;28;20730;-72
2022/01/21 11:06:27;;;;;;;0.00;0.00;;;;;;;;;;5067646;28;20190;-74
2022/01/21 11:09:10;;;;;;;0.00;0.00;;;;;;;;;;5074675;28;20554;-72
2022/01/21 11:11:51;;;;;;;0.00;0.00;;;;;;;;;;5022706;28;10000979;-76
2022/01/21 11:14:21;;;;;;;0.00;0.00;;;;;;;;;;5072765;28;20371;-75
2022/01/21 11:16:50;;;;;;;0.00;0.00;;;;;;;;;;5071222;28;20639;-72
2022/01/21 11:19:39;;;;;;;0.00;0.00;;;;;;;;;;5074140;28;20206;-75
2022/01/21 11:22:08;;;;;;;0.00;0.00;;;;;;;;;;5074714;28;20201;-73
2022/01/21 11:24:48;;;;;;;0.00;0.00;;;;;;;;;;5074922;28;20211;-76
2022/01/21 11:27:23;;;;;;;0.00;0.00;;;;;;;;;;5074147;28;20640;-74
2022/01/21 11:29:53;;;;;;;0.00;0.00;;;;;;;;;;5074367;28;20661;-73
2022/01/21 11:32:21;;;;;;;0.00;0.00;;;;;;;;;;5074628;28;20229;-74
2022/01/21 11:34:49;;;;;;;0.00;0.00;;;;;;;;;;5074555;28;20670;-77
2022/01/21 11:37:19;;;;;;;0.00;0.00;;;;;;;;;;5074745;28;20272;-72
2022/01/21 11:39:47;;;;;;;0.00;0.00;;;;;;;;;;5074481;28;20293;-72
2022/01/21 11:42:17;;;;;;;0.00;0.00;;;;;;;;;;5074236;28;20203;-75
2022/01/21 11:44:52;;;;;;;0.00;0.00;;;;;;;;;;5074352;28;20697;-76
2022/01/21 11:47:48;;;;;;;0.00;0.00;;;;;;;;;;5074528;28;20233;-73
2022/01/21 11:50:18;;;;;;;0.00;0.00;;;;;;;;;;5072212;28;20252;-74
2022/01/21 11:52:47;;;;;;;0.00;0.00;;;;;;;;;;5074331;28;20248;-76
2022/01/21 11:55:30;;;;;;;0.00;0.00;;;;;;;;;;5074418;28;20286;-72
2022/01/21 11:58:11;;;;;;;0.00;0.00;;;;;;;;;;5074106;28;20230;-72
2022/01/21 12:00:42;;;;;;;0.00;0.00;;;;;;;;;;5074176;28;20194;-74
2022/01/21 12:03:10;;;;;;;0.00;0.00;;;;;;;;;;5074018;28;20190;-74
2022/01/21 12:05:39;;;;;;;0.00;0.00;;;;;;;;;;5074281;28;20312;-74
2022/01/21 12:08:07;;;;;;;0.00;0.00;;;;;;;;;;5074073;28;20624;-73
2022/01/21 12:10:37;;;;;;;0.00;0.00;;;;;;;;;;5073642;28;20287;-74
2022/01/21 12:13:17;;;;;;;0.00;0.00;;;;;;;;;;5073924;28;20234;-74
2022/01/21 12:21:41;;;;;;;0.00;0.00;;;;;;;;;;5072004;28;20191;-74
2022/01/21 12:24:10;;;;;;;0.00;0.00;;;;;;;;;;5073891;28;20689;-74
2022/01/21 12:26:55;;;;;;;0.00;0.00;;;;;;;;;;5073486;28;20612;-72
2022/01/21 12:29:25;;;;;;;0.00;0.00;;;;;;;;;;5064091;28;20266;-72
2022/01/21 12:31:59;;;;;;;0.00;0.00;;;;;;;;;;5074270;28;20279;-75
2022/01/21 12:34:28;;;;;;;0.00;0.00;;;;;;;;;;5073616;28;20630;-72
2022/01/21 12:36:57;;;;;;;0.00;0.00;;;;;;;;;;5073221;28;20634;-75
2022/01/21 12:39:39;;;;;;;0.00;0.00;;;;;;;;;;5072841;28;20210;-73
2022/01/21 12:42:27;;;;;;;0.00;0.00;;;;;;;;;;5073756;28;20255;-73
2022/01/21 12:44:57;;;;;;;0.00;0.00;;;;;;;;;;5073319;28;20259;-74
2022/01/21 12:47:30;;;;;;;0.00;0.00;;;;;;;;;;5073727;28;20232;-72
2022/01/21 12:49:59;;;;;;;0.00;0.00;;;;;;;;;;5067787;28;20206;-74
2022/01/21 12:52:44;;;;;;;0.00;0.00;;;;;;;;;;5073453;28;20236;-73
2022/01/21 12:58:07;;;;;;;0.33;0.20;;;;;;;;;;5071840;28;20268;-73
2022/01/21 13:00:35;;;;;;;0.10;0.10;;;;;;;;;;5072803;28;20205;-73
2022/01/21 13:03:09;;;;;;;0.50;0.10;;;;;;;;;;5072998;28;20199;-73
2022/01/21 13:05:40;;;;;;;0.30;0.20;;;;;;;;;;5072961;28;20260;-74
2022/01/21 13:08:11;;;;;;;1.60;0.23;;;;;;;;;;5072491;28;20251;-74
2022/01/21 13:10:40;;;;;;;0.00;0.00;;;;;;;;;;5059856;28;20194;-72
2022/01/21 13:13:21;;;;;;;0.40;0.30;;;;;;;;;;4715027;28;9999600;-75
2022/01/21 13:15:50;;;;;;;1.97;0.60;;;;;;;;;;5069684;28;20253;-75
2022/01/21 13:18:23;;;;;;;2.03;0.37;;;;;;;;;;5061863;28;20222;-73
2022/01/21 13:20:53;;;;;;;0.77;0.17;;;;;;;;;;5065904;28;20543;-73
2022/01/21 13:23:37;;;;;;;1.23;0.50;;;;;;;;;;5069361;28;20247;-72
2022/01/21 13:26:13;;;;;;;0.40;0.20;;;;;;;;;;5070330;28;20607;-72
2022/01/21 13:28:55;;;;;;;1.03;0.27;;;;;;;;;;5068722;28;20226;-73
2022/01/21 13:31:23;;;;;;;0.57;0.43;;;;;;;;;;5068953;28;20267;-72
2022/01/21 13:33:54;;;;;;;1.50;0.53;;;;;;;;;;5069837;28;20225;-72
2022/01/21 13:36:38;;;;;;;0.13;0.13;;;;;;;;;;5069353;28;20274;-73
2022/01/21 13:39:11;;;;;;;0.63;0.23;;;;;;;;;;5069465;28;20703;-72
2022/01/21 13:41:54;;;;;;;0.40;0.20;;;;;;;;;;5069966;28;20264;-74
2022/01/21 13:44:49;;;;;;;1.40;0.30;;;;;;;;;;5062810;28;20205;-72
2022/01/21 13:47:25;;;;;;;0.63;0.40;;;;;;;;;;5030997;28;20284;-74
2022/01/21 13:49:56;;;;;;;0.40;0.10;;;;;;;;;;5071383;28;20263;-73
2022/01/21 13:52:35;;;;;;;1.90;0.50;;;;;;;;;;5072762;28;20222;-73
2022/01/21 13:55:04;;;;;;;1.10;0.40;;;;;;;;;;5070452;28;20191;-73
2022/01/21 13:57:33;;;;;;;2.33;0.53;;;;;;;;;;5061077;28;20223;-73
2022/01/21 14:00:01;;;;;;;1.07;0.30;;;;;;;;;;5072833;28;20283;-72
2022/01/21 14:02:30;;;;;;;1.07;0.30;;;;;;;;;;5074721;28;20200;-72
2022/01/21 14:05:01;;;;;;;3.90;0.50;;;;;;;;;;5075377;28;20272;-72
2022/01/21 14:07:31;;;;;;;2.47;0.50;;;;;;;;;;5073207;28;20242;-73
2022/01/21 14:10:02;;;;;;;3.03;0.93;;;;;;;;;;5076223;28;20202;-73
2022/01/21 14:12:31;;;;;;;2.63;0.67;;;;;;;;;;5074680;27;20610;-74
2022/01/21 14:15:00;;;;;;;0.87;0.40;;;;;;;;;;5075423;28;20197;-71
2022/01/21 14:17:28;;;;;;;0.27;0.20;;;;;;;;;;5073130;28;20697;-72
2022/01/21 14:20:00;;;;;;;3.90;1.07;;;;;;;;;;5071903;28;20644;-73
2022/01/21 14:22:29;;;;;;;1.40;0.60;;;;;;;;;;5071985;28;20206;-75
2022/01/21 14:24:58;;;;;;;3.03;0.77;;;;;;;;;;5069848;28;20657;-74
2022/01/21 14:27:29;;;;;;;2.57;0.77;;;;;;;;;;5065667;28;20226;-73
2022/01/21 14:30:00;;;;;;;3.93;0.83;;;;;;;;;;5068977;28;20597;-72
2022/01/21 14:32:36;;;;;;;2.27;0.93;;;;;;;;;;5073846;28;20217;-74
2022/01/21 14:35:12;;;;;;;0.77;0.50;;;;;;;;;;5074143;28;20194;-73
2022/01/21 14:37:44;;;;;;;2.20;0.47;;;;;;;;;;5068112;28;20266;-75
2022/01/21 14:40:13;;;;;;;1.80;0.53;;;;;;;;;;5073609;28;20563;-74
2022/01/21 14:42:42;;;;;;;1.23;0.40;;;;;;;;;;5075089;28;20199;-74
2022/01/21 14:45:25;;;;;;;2.63;0.67;;;;;;;;;;5074370;28;20233;-72
2022/01/21 14:47:54;;;;;;;2.77;1.07;;;;;;;;;;5067600;28;20302;-72
2022/01/21 14:53:21;;;;;;;2.83;0.73;;;;;;;;;;5072849;28;20333;-74
2022/01/21 14:55:57;;;;;;;3.90;0.50;;;;;;;;;;5065781;28;20194;-73
2022/01/21 14:58:32;;;;;;;1.10;0.60;;;;;;;;;;5073113;28;20623;-74
2022/01/21 15:01:06;;;;;;;1.23;0.47;;;;;;;;;;5067252;28;20247;-75
2022/01/21 15:03:37;;;;;;;1.17;0.53;;;;;;;;;;5072597;28;20554;-73
2022/01/21 15:06:16;;;;;;;1.90;0.93;;;;;;;;;;5068298;28;20618;-72
2022/01/21 15:08:56;;;;;;;1.90;0.87;;;;;;;;;;5073576;28;20226;-72
2022/01/21 15:11:53;;;;;;;4.03;1.17;;;;;;;;;;5074667;28;20539;-74
2022/01/21 15:14:27;;;;;;;4.60;1.40;;;;;;;;;;5071666;28;20299;-71
2022/01/21 15:16:58;;;;;;;1.80;0.87;;;;;;;;;;5073016;28;20256;-71
2022/01/21 15:19:36;;;;;;;7.93;1.10;;;;;;;;;;5074329;28;20217;-73
2022/01/21 15:22:09;;;;;;;3.90;1.10;;;;;;;;;;5069412;28;20202;-74
2022/01/21 15:27:26;;;;;;;3.43;1.10;;;;;;;;;;5065944;28;20709;-74
2022/01/21 15:29:59;;;;;;;4.23;1.23;;;;;;;;;;5069130;28;20202;-73
2022/01/21 15:32:34;;;;;;;3.00;0.87;;;;;;;;;;5071630;28;20186;-73
2022/01/21 15:35:06;;;;;;;4.90;1.33;;;;;;;;;;5070042;28;20357;-73
2022/01/21 15:37:35;;;;;;;4.87;1.10;;;;;;;;;;5071239;28;20218;-74
2022/01/21 15:40:09;;;;;;;4.17;0.90;;;;;;;;;;5070278;28;20210;-73
2022/01/21 15:42:41;;;;;;;3.80;0.87;;;;;;;;;;5069202;28;20207;-72
2022/01/21 15:45:26;;;;;;;4.70;1.13;;;;;;;;;;5058700;28;20220;-73
2022/01/21 15:47:55;;;;;;;5.07;1.23;;;;;;;;;;5073354;28;20215;-72
2022/01/21 15:50:23;;;;;;;3.97;0.83;;;;;;;;;;5069997;28;20627;-71
2022/01/21 15:52:52;;;;;;;1.40;0.63;;;;;;;;;;5067848;28;20203;-72
2022/01/21 15:55:22;;;;;;;3.30;0.73;;;;;;;;;;5063106;28;20234;-72
2022/01/21 15:57:50;;;;;;;1.80;0.60;;;;;;;;;;5058305;28;20218;-70
2022/01/21 16:00:21;;;;;;;1.80;0.63;;;;;;;;;;5062672;28;20206;-72
2022/01/21 16:02:51;;;;;;;2.47;0.87;;;;;;;;;;5074040;28;20582;-72